Time;durP1;ratioP1;P1;durP2;ratioP2;P2;SDS_P1;SDS_P2;PMS_P1;PMS_P2;Temp;Humidity;BMP_temperature;BMP_pressure;BME280_temperature;BME280_humidity;BME280_pressure;Samples;Min_cycle;Max_cycle;Signal;HPM_P1;HPM_P2
2022/03/26 00:00:20;;;;;;;;;;;8.60;93.70;;;;;;5095483;28;19904;-44
2022/03/26 00:02:45;;;;;;;;;;;8.70;93.00;;;;;;5096349;28;19911;-44
2022/03/26 00:05:11;;;;;;;;;;;8.60;93.10;;;;;;5096898;28;19908;-46
2022/03/26 00:07:37;;;;;;;;;;;8.50;94.90;;;;;;5096046;28;19904;-45
2022/03/26 00:10:05;;;;;;;;;;;8.60;92.30;;;;;;5096303;28;20342;-46
2022/03/26 00:12:31;;;;;;;;;;;8.60;93.90;;;;;;5095084;28;19983;-49
2022/03/26 00:14:58;;;;;;;;;;;8.50;93.60;;;;;;5096560;28;19970;-43
2022/03/26 00:17:24;;;;;;;;;;;8.40;94.40;;;;;;5096027;28;19908;-48
2022/03/26 00:19:49;;;;;;;;;;;8.40;95.10;;;;;;5096098;28;19904;-46
2022/03/26 00:22:15;;;;;;;;;;;8.40;93.40;;;;;;5095922;28;20243;-44
2022/03/26 00:24:40;;;;;;;;;;;8.30;92.80;;;;;;5096548;28;20249;-47
2022/03/26 00:27:06;;;;;;;;;;;8.30;93.60;;;;;;5096286;28;20030;-45
2022/03/26 00:29:31;;;;;;;;;;;8.30;94.20;;;;;;5096032;28;20045;-47
2022/03/26 00:31:57;;;;;;;;;;;8.20;95.40;;;;;;5094749;28;19911;-45
2022/03/26 00:34:23;;;;;;;;;;;8.20;95.30;;;;;;5095662;28;19908;-46
2022/03/26 00:36:49;;;;;;;;;;;8.10;96.20;;;;;;5094541;28;20247;-46
2022/03/26 00:39:14;;;;;;;;;;;8.10;96.90;;;;;;5095663;28;19918;-43
2022/03/26 00:41:40;;;;;;;;;;;8.10;96.60;;;;;;5095929;28;19904;-46
2022/03/26 00:44:05;;;;;;;;;;;8.00;95.30;;;;;;5095678;28;19990;-45
2022/03/26 00:46:31;;;;;;;;;;;8.00;95.20;;;;;;5095306;28;19904;-45
2022/03/26 00:48:57;;;;;;;;;;;8.00;95.30;;;;;;5095976;28;19904;-46
2022/03/26 00:51:22;;;;;;;;;;;8.00;97.60;;;;;;5095533;28;19904;-48
2022/03/26 00:53:48;;;;;;;;;;;7.90;97.10;;;;;;5095474;28;19911;-49
2022/03/26 00:56:13;;;;;;;;;;;7.90;98.00;;;;;;5095617;28;19908;-45
2022/03/26 00:58:39;;;;;;;;;;;7.90;97.40;;;;;;5095155;28;19908;-44
2022/03/26 01:01:07;;;;;;;;;;;7.80;97.10;;;;;;5094213;28;19908;-46
2022/03/26 01:03:33;;;;;;;;;;;7.80;98.30;;;;;;5095310;28;19997;-45
2022/03/26 01:05:58;;;;;;;;;;;7.70;99.40;;;;;;5094568;28;19904;-44
2022/03/26 01:08:24;;;;;;;;;;;7.80;97.40;;;;;;5094113;28;20520;-47
2022/03/26 01:10:49;;;;;;;;;;;7.70;96.80;;;;;;5094412;28;19908;-45
2022/03/26 01:13:16;;;;;;;;;;;7.70;96.70;;;;;;5093968;28;20025;-45
2022/03/26 01:15:41;;;;;;;;;;;7.80;94.90;;;;;;5095073;28;19955;-46
2022/03/26 01:18:07;;;;;;;;;;;7.90;94.80;;;;;;5095178;28;19953;-46
2022/03/26 01:20:32;;;;;;;;;;;7.90;95.20;;;;;;5095141;28;19904;-46
2022/03/26 01:22:58;;;;;;;;;;;7.90;94.60;;;;;;5095071;28;19935;-46
2022/03/26 01:25:24;;;;;;;;;;;7.80;95.00;;;;;;5094776;28;19997;-47
2022/03/26 01:27:50;;;;;;;;;;;7.80;95.20;;;;;;5094760;28;19947;-46
2022/03/26 01:30:16;;;;;;;;;;;7.80;95.30;;;;;;5094884;28;20265;-45
2022/03/26 01:32:43;;;;;;;;;;;7.90;95.30;;;;;;5093688;28;19904;-47
2022/03/26 01:35:09;;;;;;;;;;;7.80;95.40;;;;;;5094615;28;19947;-47
2022/03/26 01:37:35;;;;;;;;;;;7.80;95.10;;;;;;5094940;28;19974;-43
2022/03/26 01:40:00;;;;;;;;;;;7.80;95.50;;;;;;5094827;28;19908;-46
2022/03/26 01:42:26;;;;;;;;;;;7.80;96.90;;;;;;5094687;28;20003;-47
2022/03/26 01:44:51;;;;;;;;;;;7.80;96.60;;;;;;5094569;28;20353;-45
2022/03/26 01:47:18;;;;;;;;;;;7.80;96.60;;;;;;5094403;28;19904;-45
2022/03/26 01:49:43;;;;;;;;;;;7.80;95.20;;;;;;5094668;28;20245;-47
2022/03/26 01:52:10;;;;;;;;;;;7.70;94.40;;;;;;5093366;28;20354;-46
2022/03/26 01:54:37;;;;;;;;;;;7.70;94.70;;;;;;5094554;28;19907;-43
2022/03/26 01:57:03;;;;;;;;;;;7.70;95.90;;;;;;5094231;28;19908;-44
2022/03/26 01:59:29;;;;;;;;;;;7.70;95.20;;;;;;5094474;28;19904;-46
2022/03/26 02:01:54;;;;;;;;;;;7.70;95.20;;;;;;5094158;28;19954;-45
2022/03/26 02:04:20;;;;;;;;;;;7.70;95.30;;;;;;5094070;28;19991;-45
2022/03/26 02:06:47;;;;;;;;;;;7.60;95.00;;;;;;5093934;28;19991;-45
2022/03/26 02:09:13;;;;;;;;;;;7.60;94.80;;;;;;5093848;28;20349;-45
2022/03/26 02:11:40;;;;;;;;;;;7.60;94.90;;;;;;5094131;28;19998;-44
2022/03/26 02:14:08;;;;;;;;;;;7.60;95.10;;;;;;5094013;28;19904;-43
2022/03/26 02:16:34;;;;;;;;;;;7.60;95.70;;;;;;5092725;28;20266;-45
2022/03/26 02:19:00;;;;;;;;;;;7.50;97.20;;;;;;5094104;28;19908;-47
2022/03/26 02:21:26;;;;;;;;;;;7.40;96.20;;;;;;5094134;28;19911;-44
2022/03/26 02:23:52;;;;;;;;;;;7.40;96.60;;;;;;5093729;28;19904;-45
2022/03/26 02:26:26;;;;;;;;;;;7.40;96.20;;;;;;5093658;28;19923;-45
2022/03/26 02:28:55;;;;;;;;;;;7.40;96.30;;;;;;5093795;28;20022;-44
2022/03/26 02:31:21;;;;;;;;;;;7.50;96.90;;;;;;5094054;28;20242;-45
2022/03/26 02:33:47;;;;;;;;;;;7.40;95.70;;;;;;5093922;28;20440;-44
2022/03/26 02:36:13;;;;;;;;;;;7.40;96.80;;;;;;5093564;28;20011;-45
2022/03/26 02:38:38;;;;;;;;;;;7.40;96.50;;;;;;5093455;28;19908;-44
2022/03/26 02:41:05;;;;;;;;;;;7.30;96.90;;;;;;5093852;28;19995;-45
2022/03/26 02:43:30;;;;;;;;;;;7.30;96.50;;;;;;5093961;28;19999;-45
2022/03/26 02:45:56;;;;;;;;;;;7.30;97.00;;;;;;5093849;28;19937;-43
2022/03/26 02:48:21;;;;;;;;;;;7.20;97.50;;;;;;5093992;28;19904;-47
2022/03/26 02:50:47;;;;;;;;;;;7.20;97.10;;;;;;5093874;28;20011;-46
2022/03/26 02:53:13;;;;;;;;;;;7.20;97.50;;;;;;5092618;28;20258;-44
2022/03/26 02:55:39;;;;;;;;;;;7.20;96.90;;;;;;5093760;28;19908;-48
2022/03/26 02:58:05;;;;;;;;;;;7.20;99.30;;;;;;5093659;28;19915;-46
2022/03/26 03:00:31;;;;;;;;;;;7.10;99.50;;;;;;5092416;28;19972;-45
2022/03/26 03:02:56;;;;;;;;;;;7.00;98.40;;;;;;5093710;28;20383;-46
2022/03/26 03:05:22;;;;;;;;;;;7.00;98.60;;;;;;5093231;28;19908;-44
2022/03/26 03:07:48;;;;;;;;;;;7.00;98.20;;;;;;5093960;28;20250;-47
2022/03/26 03:10:15;;;;;;;;;;;6.90;98.50;;;;;;5093481;28;19904;-48
2022/03/26 03:12:41;;;;;;;;;;;6.90;98.70;;;;;;5093551;28;19904;-48
2022/03/26 03:15:07;;;;;;;;;;;6.90;98.70;;;;;;5093421;28;19959;-47
2022/03/26 03:17:40;;;;;;;;;;;7.00;99.70;;;;;;5092158;28;19965;-44
2022/03/26 03:20:07;;;;;;;;;;;6.90;98.90;;;;;;5093494;28;19904;-46
2022/03/26 03:22:32;;;;;;;;;;;7.00;98.70;;;;;;5093332;28;20025;-44
2022/03/26 03:24:58;;;;;;;;;;;7.00;99.40;;;;;;5093300;28;20368;-47
2022/03/26 03:27:24;;;;;;;;;;;6.90;98.80;;;;;;5093194;28;19908;-44
2022/03/26 03:29:49;;;;;;;;;;;6.90;99.60;;;;;;5095643;28;19904;-46
2022/03/26 03:32:15;;;;;;;;;;;6.90;99.90;;;;;;5097205;28;19951;-44
2022/03/26 03:34:40;;;;;;;;;;;6.80;99.00;;;;;;5097216;28;20338;-45
2022/03/26 03:37:06;;;;;;;;;;;6.80;98.60;;;;;;5097196;28;20017;-46
2022/03/26 03:39:32;;;;;;;;;;;6.80;99.90;;;;;;5095618;28;19904;-45
2022/03/26 03:41:58;;;;;;;;;;;6.70;99.90;;;;;;5097095;28;19904;-47
2022/03/26 03:44:25;;;;;;;;;;;6.60;99.90;;;;;;5096920;28;19987;-47
2022/03/26 03:46:50;;;;;;;;;;;6.40;99.90;;;;;;5096715;28;19904;-45
2022/03/26 03:49:16;;;;;;;;;;;6.40;99.90;;;;;;5096550;28;19937;-46
2022/03/26 03:51:41;;;;;;;;;;;6.30;99.90;;;;;;5096947;28;19911;-47
2022/03/26 03:54:08;;;;;;;;;;;6.30;99.90;;;;;;5096905;28;19938;-44
2022/03/26 03:56:33;;;;;;;;;;;6.20;99.90;;;;;;5096417;28;19908;-46
2022/03/26 03:58:59;;;;;;;;;;;6.10;99.90;;;;;;5096448;28;19914;-45
2022/03/26 04:01:25;;;;;;;;;;;6.10;99.90;;;;;;5097002;28;19908;-47
2022/03/26 04:03:50;;;;;;;;;;;6.10;99.90;;;;;;5096336;28;19958;-45
2022/03/26 04:06:16;;;;;;;;;;;6.10;99.90;;;;;;5096505;28;19911;-48
2022/03/26 04:08:41;;;;;;;;;;;6.00;99.90;;;;;;5096803;28;19904;-45
2022/03/26 04:11:07;;;;;;;;;;;5.90;99.90;;;;;;5096772;28;19911;-45
2022/03/26 04:13:32;;;;;;;;;;;5.90;99.90;;;;;;5096059;28;19905;-45
2022/03/26 04:15:58;;;;;;;;;;;5.90;99.90;;;;;;5096191;28;20285;-46
2022/03/26 04:18:23;;;;;;;;;;;5.90;99.90;;;;;;5096158;28;19917;-45
2022/03/26 04:20:51;;;;;;;;;;;5.90;99.90;;;;;;5096525;28;19904;-45
2022/03/26 04:23:17;;;;;;;;;;;5.80;99.90;;;;;;5091217;28;20366;-46
2022/03/26 04:25:43;;;;;;;;;;;5.70;99.90;;;;;;5115561;28;19961;-43
2022/03/26 04:28:08;;;;;;;;;;;5.70;99.90;;;;;;5110048;28;19912;-47
2022/03/26 04:30:34;;;;;;;;;;;5.60;99.90;;;;;;5095422;28;20282;-45
2022/03/26 04:33:00;;;;;;;;;;;5.60;99.90;;;;;;5084947;28;19965;-48
2022/03/26 04:35:26;;;;;;;;;;;5.70;99.90;;;;;;5095467;28;19995;-49
2022/03/26 04:37:55;;;;;;;;;;;5.60;99.90;;;;;;5089918;28;20293;-45
2022/03/26 04:40:21;;;;;;;;;;;5.60;99.90;;;;;;5095697;28;19908;-49
2022/03/26 04:42:46;;;;;;;;;;;5.60;99.90;;;;;;5095832;28;19995;-51
2022/03/26 04:45:12;;;;;;;;;;;5.60;99.90;;;;;;5095592;28;20363;-49
2022/03/26 04:47:40;;;;;;;;;;;5.60;99.90;;;;;;5094225;28;19915;-46
2022/03/26 04:50:06;;;;;;;;;;;5.50;99.90;;;;;;5095421;28;19920;-46
2022/03/26 04:52:32;;;;;;;;;;;5.50;99.90;;;;;;5094990;28;19939;-47
2022/03/26 04:54:57;;;;;;;;;;;5.60;99.90;;;;;;5094670;28;19908;-47
2022/03/26 04:57:23;;;;;;;;;;;5.50;99.90;;;;;;5094892;28;20017;-44
2022/03/26 04:59:49;;;;;;;;;;;5.50;99.90;;;;;;5095269;28;19908;-46
2022/03/26 05:02:14;;;;;;;;;;;5.40;99.90;;;;;;5091047;28;19939;-48
2022/03/26 05:04:40;;;;;;;;;;;5.30;99.90;;;;;;5082035;28;20271;-48
2022/03/26 05:07:45;;;;;;;;;;;5.30;99.90;;;;;;5095011;28;19915;-44
2022/03/26 05:09:51;;;;;;;;;;;5.40;99.90;;;;;;5074582;28;19997;-47
2022/03/26 05:12:17;;;;;;;;;;;5.40;99.90;;;;;;5074955;28;20275;-49
2022/03/26 05:14:43;;;;;;;;;;;5.30;99.90;;;;;;5074775;28;19995;-45
2022/03/26 05:17:09;;;;;;;;;;;5.30;99.90;;;;;;5074642;28;20004;-46
2022/03/26 05:19:35;;;;;;;;;;;5.40;99.90;;;;;;5074409;28;19955;-48
2022/03/26 05:22:00;;;;;;;;;;;5.40;99.90;;;;;;5072750;28;19909;-49
2022/03/26 05:24:26;;;;;;;;;;;5.40;99.90;;;;;;5088114;28;19909;-47
2022/03/26 05:26:51;;;;;;;;;;;5.50;99.90;;;;;;5072290;28;19955;-45
2022/03/26 05:29:17;;;;;;;;;;;5.50;99.90;;;;;;5072708;28;20256;-45
2022/03/26 05:31:43;;;;;;;;;;;5.40;99.90;;;;;;5072649;28;19925;-47
2022/03/26 05:34:08;;;;;;;;;;;5.50;99.90;;;;;;5087856;28;19909;-44
2022/03/26 05:36:34;;;;;;;;;;;5.60;99.90;;;;;;5072897;28;19924;-45
2022/03/26 05:39:01;;;;;;;;;;;5.60;99.90;;;;;;5073510;28;21441;-46
2022/03/26 05:41:27;;;;;;;;;;;5.70;99.90;;;;;;5074153;28;19908;-49
2022/03/26 05:43:53;;;;;;;;;;;5.80;99.90;;;;;;5074325;28;19909;-45
2022/03/26 05:46:19;;;;;;;;;;;5.80;99.90;;;;;;5073972;28;19909;-47
2022/03/26 05:48:45;;;;;;;;;;;5.80;99.90;;;;;;5074265;28;19912;-45
2022/03/26 05:51:11;;;;;;;;;;;5.80;99.90;;;;;;5073468;28;19939;-48
2022/03/26 05:53:36;;;;;;;;;;;6.00;99.90;;;;;;5074205;28;19908;-48
2022/03/26 05:56:02;;;;;;;;;;;6.00;99.90;;;;;;5073890;28;20319;-44
2022/03/26 05:58:27;;;;;;;;;;;6.10;99.90;;;;;;5074079;28;20343;-43
2022/03/26 06:00:53;;;;;;;;;;;6.10;99.90;;;;;;5073759;28;19952;-49
2022/03/26 06:03:19;;;;;;;;;;;6.10;99.90;;;;;;5073756;28;19979;-47
2022/03/26 06:05:45;;;;;;;;;;;6.20;99.90;;;;;;5073993;28;19912;-48
2022/03/26 06:08:10;;;;;;;;;;;6.30;99.90;;;;;;5074006;28;20054;-44
2022/03/26 06:10:36;;;;;;;;;;;6.50;99.90;;;;;;5089557;28;19943;-43
2022/03/26 06:13:01;;;;;;;;;;;6.60;99.90;;;;;;5073773;28;19919;-44
2022/03/26 06:15:27;;;;;;;;;;;6.70;99.90;;;;;;5073662;28;20388;-47
2022/03/26 06:17:52;;;;;;;;;;;6.70;99.90;;;;;;5073618;28;20322;-45
2022/03/26 06:20:18;;;;;;;;;;;6.80;99.90;;;;;;5073544;28;20363;-46
2022/03/26 06:22:44;;;;;;;;;;;6.90;99.90;;;;;;5073851;28;19908;-46
2022/03/26 06:25:09;;;;;;;;;;;7.00;99.90;;;;;;5074018;28;20262;-47
2022/03/26 06:27:35;;;;;;;;;;;7.10;99.90;;;;;;5073620;28;19916;-44
2022/03/26 06:30:01;;;;;;;;;;;7.20;99.90;;;;;;5073618;28;20004;-45
2022/03/26 06:32:28;;;;;;;;;;;7.20;99.90;;;;;;5073669;28;19974;-49
2022/03/26 06:34:53;;;;;;;;;;;7.30;99.90;;;;;;5073131;28;19909;-44
2022/03/26 06:37:22;;;;;;;;;;;7.50;99.90;;;;;;5073265;28;19946;-44
2022/03/26 06:39:47;;;;;;;;;;;7.50;99.90;;;;;;5073723;28;19913;-46
2022/03/26 06:42:13;;;;;;;;;;;7.60;99.90;;;;;;5073093;28;20028;-46
2022/03/26 06:44:38;;;;;;;;;;;7.80;99.90;;;;;;5073507;28;19931;-45
2022/03/26 06:47:04;;;;;;;;;;;7.80;99.90;;;;;;5073131;28;20098;-44
2022/03/26 06:49:31;;;;;;;;;;;7.90;99.90;;;;;;5073197;28;19916;-45
2022/03/26 06:51:57;;;;;;;;;;;8.00;99.90;;;;;;5073569;28;20416;-45
2022/03/26 06:54:23;;;;;;;;;;;8.10;99.90;;;;;;5105619;28;19909;-45
2022/03/26 06:56:48;;;;;;;;;;;8.30;99.90;;;;;;5072973;28;19913;-46
2022/03/26 06:59:14;;;;;;;;;;;8.40;99.90;;;;;;5072588;28;19916;-46
2022/03/26 07:01:39;;;;;;;;;;;8.50;99.90;;;;;;5072934;28;19912;-45
2022/03/26 07:04:05;;;;;;;;;;;8.60;99.90;;;;;;5086285;28;19916;-44
2022/03/26 07:06:30;;;;;;;;;;;8.70;99.90;;;;;;5083665;28;20351;-45
2022/03/26 07:08:56;;;;;;;;;;;8.80;99.90;;;;;;5115484;28;20264;-47
2022/03/26 07:11:21;;;;;;;;;;;8.80;99.50;;;;;;5111936;28;19962;-47
2022/03/26 07:13:47;;;;;;;;;;;9.00;99.40;;;;;;5097328;28;19908;-43
2022/03/26 07:16:13;;;;;;;;;;;9.10;99.00;;;;;;5093989;28;20321;-49
2022/03/26 07:18:38;;;;;;;;;;;9.30;99.90;;;;;;5095159;28;19916;-43
2022/03/26 07:21:04;;;;;;;;;;;9.30;98.40;;;;;;5097229;28;19911;-44
2022/03/26 07:23:30;;;;;;;;;;;9.30;97.40;;;;;;5096601;28;19919;-44
2022/03/26 07:25:55;;;;;;;;;;;9.40;97.80;;;;;;5095734;28;19908;-45
2022/03/26 07:28:21;;;;;;;;;;;9.20;96.50;;;;;;5095190;28;19961;-44
2022/03/26 07:30:46;;;;;;;;;;;9.40;97.70;;;;;;5095360;28;19920;-47
2022/03/26 07:33:12;;;;;;;;;;;9.50;97.20;;;;;;5094972;28;20006;-45
2022/03/26 07:35:37;;;;;;;;;;;9.70;98.20;;;;;;5095537;28;19956;-47
2022/03/26 07:38:03;;;;;;;;;;;9.70;95.80;;;;;;5094935;28;19912;-44
2022/03/26 07:40:29;;;;;;;;;;;9.70;96.20;;;;;;5093825;28;20416;-49
2022/03/26 07:42:54;;;;;;;;;;;9.80;96.60;;;;;;5095263;28;19912;-45
2022/03/26 07:45:20;;;;;;;;;;;10.00;96.70;;;;;;5093631;28;19908;-46
2022/03/26 07:47:45;;;;;;;;;;;10.10;95.70;;;;;;5098478;28;19965;-45
2022/03/26 07:50:11;;;;;;;;;;;10.30;95.50;;;;;;5094572;28;19952;-44
2022/03/26 07:52:38;;;;;;;;;;;10.30;96.10;;;;;;5094309;28;20369;-46
2022/03/26 07:55:04;;;;;;;;;;;10.50;95.60;;;;;;5083464;28;20305;-48
2022/03/26 07:57:30;;;;;;;;;;;10.40;93.70;;;;;;5075496;28;19935;-46
2022/03/26 07:59:55;;;;;;;;;;;10.20;94.20;;;;;;5095279;28;20303;-45
2022/03/26 08:02:21;;;;;;;;;;;10.10;94.30;;;;;;5094002;28;19912;-43
2022/03/26 08:04:47;;;;;;;;;;;10.00;94.30;;;;;;5099863;28;20192;-44
2022/03/26 08:07:13;;;;;;;;;;;10.20;94.20;;;;;;5094111;28;19991;-46
2022/03/26 08:09:39;;;;;;;;;;;10.50;94.40;;;;;;5084440;28;19918;-48
2022/03/26 08:12:04;;;;;;;;;;;10.70;94.30;;;;;;5109544;28;20018;-47
2022/03/26 08:14:30;;;;;;;;;;;10.80;94.00;;;;;;5094088;28;20359;-44
2022/03/26 08:16:56;;;;;;;;;;;10.90;93.50;;;;;;5087718;28;19917;-44
2022/03/26 08:19:21;;;;;;;;;;;11.10;93.70;;;;;;5081179;28;19962;-47
2022/03/26 08:21:47;;;;;;;;;;;11.30;94.00;;;;;;5095088;28;19995;-48
2022/03/26 08:24:13;;;;;;;;;;;11.40;95.00;;;;;;5094943;28;20247;-45
2022/03/26 08:26:39;;;;;;;;;;;11.60;93.50;;;;;;5095686;28;20341;-45
2022/03/26 08:29:05;;;;;;;;;;;11.60;94.10;;;;;;5087507;28;20003;-46
2022/03/26 08:31:31;;;;;;;;;;;11.70;93.80;;;;;;5082351;28;19945;-46
2022/03/26 08:33:57;;;;;;;;;;;11.80;92.90;;;;;;5099477;28;19919;-47
2022/03/26 08:36:23;;;;;;;;;;;11.90;92.10;;;;;;5076602;28;19923;-45
2022/03/26 08:38:49;;;;;;;;;;;11.70;91.60;;;;;;5084227;28;19916;-45
2022/03/26 08:41:15;;;;;;;;;;;11.80;92.00;;;;;;5098746;28;19957;-47
2022/03/26 08:43:40;;;;;;;;;;;11.90;91.30;;;;;;5095157;28;19919;-44
2022/03/26 08:46:06;;;;;;;;;;;11.90;91.60;;;;;;5095064;28;19912;-47
2022/03/26 08:48:32;;;;;;;;;;;12.00;91.30;;;;;;5087650;28;19912;-46
2022/03/26 08:50:57;;;;;;;;;;;12.10;91.30;;;;;;5090128;28;19908;-46
2022/03/26 08:53:23;;;;;;;;;;;11.80;90.50;;;;;;5094804;28;19928;-44
2022/03/26 08:55:49;;;;;;;;;;;11.90;90.90;;;;;;5095394;28;19912;-45
2022/03/26 08:58:17;;;;;;;;;;;11.70;91.40;;;;;;5102567;28;19969;-44
2022/03/26 09:00:43;;;;;;;;;;;12.00;91.60;;;;;;5094659;28;20378;-44
2022/03/26 09:03:08;;;;;;;;;;;12.40;90.70;;;;;;5092774;28;19912;-43
2022/03/26 09:05:34;;;;;;;;;;;12.40;90.80;;;;;;5080423;28;19997;-45
2022/03/26 09:07:59;;;;;;;;;;;12.40;89.70;;;;;;5082443;28;19955;-48
2022/03/26 09:10:25;;;;;;;;;;;12.40;90.90;;;;;;5094485;28;19912;-46
2022/03/26 09:12:52;;;;;;;;;;;12.70;90.70;;;;;;5085961;28;19936;-44
2022/03/26 09:15:17;;;;;;;;;;;12.70;89.30;;;;;;5075381;28;19917;-46
2022/03/26 09:17:43;;;;;;;;;;;12.40;89.00;;;;;;5078135;28;20050;-45
2022/03/26 09:20:09;;;;;;;;;;;12.50;89.00;;;;;;5106120;28;20354;-47
2022/03/26 09:22:35;;;;;;;;;;;12.90;90.50;;;;;;5097823;28;19912;-45
2022/03/26 09:25:02;;;;;;;;;;;13.10;88.40;;;;;;5090733;28;20007;-49
2022/03/26 09:27:27;;;;;;;;;;;13.00;87.50;;;;;;5088948;28;19950;-45
2022/03/26 09:29:53;;;;;;;;;;;12.90;86.70;;;;;;5092662;28;20297;-45
2022/03/26 09:32:19;;;;;;;;;;;13.00;86.40;;;;;;5089763;28;20400;-47
2022/03/26 09:34:44;;;;;;;;;;;13.40;85.70;;;;;;5090672;28;20164;-48
2022/03/26 09:37:11;;;;;;;;;;;13.10;85.00;;;;;;5073450;28;20274;-48
2022/03/26 09:39:37;;;;;;;;;;;13.00;85.50;;;;;;5073782;28;20007;-46
2022/03/26 09:42:03;;;;;;;;;;;13.00;84.80;;;;;;5073694;28;19947;-46
2022/03/26 09:44:30;;;;;;;;;;;12.80;86.00;;;;;;5073468;28;19909;-46
2022/03/26 09:46:56;;;;;;;;;;;13.00;85.60;;;;;;5073551;28;19913;-45
2022/03/26 09:49:21;;;;;;;;;;;13.10;86.00;;;;;;5073748;28;20224;-47
2022/03/26 09:51:53;;;;;;;;;;;13.30;85.70;;;;;;5073691;28;19915;-49
2022/03/26 09:54:19;;;;;;;;;;;13.60;84.90;;;;;;5074061;28;19909;-45
2022/03/26 09:56:44;;;;;;;;;;;13.80;85.30;;;;;;5073311;28;20197;-44
2022/03/26 09:59:10;;;;;;;;;;;13.30;85.20;;;;;;5073013;28;20031;-46
2022/03/26 10:01:35;;;;;;;;;;;13.60;86.40;;;;;;5072901;28;19962;-47
2022/03/26 10:04:07;;;;;;;;;;;13.60;84.20;;;;;;5073071;28;19909;-47
2022/03/26 10:06:33;;;;;;;;;;;13.90;85.30;;;;;;5072922;28;20045;-46
2022/03/26 10:08:58;;;;;;;;;;;13.70;85.90;;;;;;5072333;28;20297;-48
2022/03/26 10:11:24;;;;;;;;;;;13.90;84.20;;;;;;5072783;28;20354;-46
2022/03/26 10:13:52;;;;;;;;;;;13.90;84.10;;;;;;5072845;28;19951;-46
2022/03/26 10:16:18;;;;;;;;;;;14.10;82.10;;;;;;5072957;28;19952;-50
2022/03/26 10:18:44;;;;;;;;;;;14.40;82.10;;;;;;5073219;28;19952;-48
2022/03/26 10:21:14;;;;;;;;;;;14.20;83.20;;;;;;5073526;28;20328;-45
2022/03/26 10:23:43;;;;;;;;;;;14.10;82.90;;;;;;5072859;28;19909;-47
2022/03/26 10:26:10;;;;;;;;;;;14.40;83.40;;;;;;5072751;28;19909;-48
2022/03/26 10:28:36;;;;;;;;;;;14.60;82.50;;;;;;5073051;28;19909;-46
2022/03/26 10:34:03;;;;;;;;;;;14.40;82.40;;;;;;5073456;28;20286;-46
2022/03/26 10:36:29;;;;;;;;;;;14.50;81.20;;;;;;5072843;28;19916;-49
2022/03/26 10:38:54;;;;;;;;;;;14.50;80.90;;;;;;5078273;28;20424;-46
2022/03/26 10:41:21;;;;;;;;;;;14.50;80.80;;;;;;5079188;28;19908;-46
2022/03/26 10:43:46;;;;;;;;;;;14.90;81.60;;;;;;5079683;28;20015;-46
2022/03/26 10:46:12;;;;;;;;;;;14.80;80.10;;;;;;5080036;28;19959;-46
2022/03/26 10:48:38;;;;;;;;;;;15.00;79.00;;;;;;5079679;28;20298;-46
2022/03/26 10:51:09;;;;;;;;;;;14.90;79.70;;;;;;5079311;28;19909;-45
2022/03/26 10:53:36;;;;;;;;;;;15.00;79.60;;;;;;5079690;28;20003;-46
2022/03/26 10:56:03;;;;;;;;;;;15.10;79.00;;;;;;5079430;28;19973;-46
2022/03/26 10:58:29;;;;;;;;;;;15.30;79.00;;;;;;5079541;28;20359;-45
2022/03/26 11:00:55;;;;;;;;;;;15.20;79.20;;;;;;5082551;28;19971;-44
2022/03/26 11:03:20;;;;;;;;;;;15.50;78.70;;;;;;5090360;28;19944;-47
2022/03/26 11:05:46;;;;;;;;;;;15.70;78.60;;;;;;5102909;28;19913;-46
2022/03/26 11:08:13;;;;;;;;;;;15.80;76.90;;;;;;5088740;28;19945;-44
2022/03/26 11:10:40;;;;;;;;;;;15.50;76.20;;;;;;5099237;28;19946;-46
2022/03/26 11:13:08;;;;;;;;;;;15.50;76.50;;;;;;5093489;28;19916;-46
2022/03/26 11:15:37;;;;;;;;;;;15.60;75.80;;;;;;5119177;28;19916;-50
2022/03/26 11:18:09;;;;;;;;;;;15.90;75.50;;;;;;5107002;28;19965;-47
2022/03/26 11:20:53;;;;;;;;;;;15.80;74.50;;;;;;5099334;28;19908;-49
2022/03/26 11:23:28;;;;;;;;;;;16.10;74.50;;;;;;5099515;28;19997;-48
2022/03/26 11:25:53;;;;;;;;;;;16.50;73.50;;;;;;5098015;28;20394;-46
2022/03/26 11:28:28;;;;;;;;;;;16.60;73.20;;;;;;5098024;28;19995;-49
2022/03/26 11:30:53;;;;;;;;;;;16.70;73.40;;;;;;5084559;28;19927;-44
2022/03/26 11:33:19;;;;;;;;;;;16.90;72.20;;;;;;5095460;28;19922;-46
2022/03/26 11:35:52;;;;;;;;;;;16.80;71.70;;;;;;5078883;28;19924;-47
2022/03/26 11:38:17;;;;;;;;;;;16.80;71.30;;;;;;5092458;28;19937;-47
2022/03/26 11:40:54;;;;;;;;;;;16.80;70.80;;;;;;5097747;28;19912;-49
2022/03/26 11:43:38;;;;;;;;;;;16.60;70.10;;;;;;5120075;28;19915;-50
2022/03/26 11:51:35;;;;;;;;;;;16.80;70.20;;;;;;5082780;28;19965;-50
2022/03/26 11:54:12;;;;;;;;;;;17.00;69.80;;;;;;5075157;28;20082;-47
2022/03/26 11:56:38;;;;;;;;;;;16.70;68.80;;;;;;5077292;28;20331;-45
2022/03/26 11:59:15;;;;;;;;;;;16.70;69.10;;;;;;5075352;28;19917;-49
2022/03/26 12:01:42;;;;;;;;;;;16.30;68.90;;;;;;5090238;28;19915;-48
2022/03/26 12:04:12;;;;;;;;;;;16.40;68.40;;;;;;5090736;28;19919;-48
2022/03/26 12:06:41;;;;;;;;;;;16.50;68.60;;;;;;5099231;28;20112;-47
2022/03/26 12:09:06;;;;;;;;;;;16.90;67.80;;;;;;5090767;28;19919;-43
2022/03/26 12:11:33;;;;;;;;;;;17.30;67.90;;;;;;5090964;28;19916;-48
2022/03/26 12:13:59;;;;;;;;;;;16.90;67.50;;;;;;5095826;28;19931;-52
2022/03/26 12:16:46;;;;;;;;;;;17.20;67.50;;;;;;5101351;28;20034;-50
2022/03/26 12:19:11;;;;;;;;;;;16.70;67.30;;;;;;5097495;28;19912;-46
2022/03/26 12:21:49;;;;;;;;;;;17.00;67.60;;;;;;5096305;28;20369;-46
2022/03/26 12:24:18;;;;;;;;;;;17.30;66.90;;;;;;5100580;28;19912;-46
2022/03/26 12:26:51;;;;;;;;;;;17.30;66.30;;;;;;5097149;28;19912;-48
2022/03/26 12:29:16;;;;;;;;;;;16.80;66.00;;;;;;5102992;28;19914;-47
2022/03/26 12:31:42;;;;;;;;;;;16.80;66.70;;;;;;5114340;28;20002;-48
2022/03/26 12:34:07;;;;;;;;;;;17.20;66.10;;;;;;5095217;28;19908;-48
2022/03/26 12:36:34;;;;;;;;;;;17.40;66.40;;;;;;5095055;28;19912;-49
2022/03/26 12:39:00;;;;;;;;;;;17.00;65.40;;;;;;5095178;28;20251;-50
2022/03/26 12:41:25;;;;;;;;;;;17.30;65.50;;;;;;5093747;28;19918;-50
2022/03/26 12:43:58;;;;;;;;;;;17.30;64.70;;;;;;5085604;28;19928;-49
2022/03/26 12:46:31;;;;;;;;;;;17.00;64.50;;;;;;5091099;28;19912;-47
2022/03/26 12:48:57;;;;;;;;;;;16.90;64.60;;;;;;5085211;28;19913;-47
2022/03/26 12:51:26;;;;;;;;;;;17.20;64.10;;;;;;5074301;28;19916;-48
2022/03/26 12:53:52;;;;;;;;;;;16.90;63.70;;;;;;5098745;28;19912;-49
2022/03/26 12:56:17;;;;;;;;;;;17.30;63.30;;;;;;5094676;28;20362;-47
2022/03/26 12:58:59;;;;;;;;;;;17.40;62.90;;;;;;5093579;28;19924;-50
2022/03/26 13:01:25;;;;;;;;;;;17.50;63.10;;;;;;5090228;28;19974;-47
2022/03/26 13:03:51;;;;;;;;;;;17.60;62.30;;;;;;5094053;28;19915;-45
2022/03/26 13:06:17;;;;;;;;;;;17.40;62.30;;;;;;5093152;28;19908;-47
2022/03/26 13:08:47;;;;;;;;;;;17.50;62.70;;;;;;5093157;28;20271;-47
2022/03/26 13:11:13;;;;;;;;;;;17.60;62.00;;;;;;5092494;28;19938;-49
2022/03/26 13:13:44;;;;;;;;;;;17.40;62.30;;;;;;5091182;28;20346;-47
2022/03/26 13:16:14;;;;;;;;;;;17.60;61.40;;;;;;5094058;28;19912;-48
2022/03/26 13:18:44;;;;;;;;;;;17.70;61.20;;;;;;5093848;28;20420;-49
2022/03/26 13:21:10;;;;;;;;;;;17.50;61.10;;;;;;5093213;28;19908;-49
2022/03/26 13:23:36;;;;;;;;;;;17.60;61.70;;;;;;5087918;28;19916;-53
2022/03/26 13:26:05;;;;;;;;;;;17.50;61.50;;;;;;5113631;27;19908;-49
2022/03/26 13:28:32;;;;;;;;;;;17.70;61.30;;;;;;5097101;28;19920;-49
2022/03/26 13:30:59;;;;;;;;;;;17.70;61.10;;;;;;5083357;28;19942;-47
2022/03/26 13:33:28;;;;;;;;;;;17.90;60.60;;;;;;5091896;28;20384;-48
2022/03/26 13:35:56;;;;;;;;;;;17.70;60.40;;;;;;5091389;28;19941;-49
2022/03/26 13:38:28;;;;;;;;;;;17.60;59.80;;;;;;5088273;28;19917;-49
2022/03/26 13:40:54;;;;;;;;;;;17.40;59.60;;;;;;5107434;28;20399;-47
2022/03/26 13:43:20;;;;;;;;;;;17.40;60.10;;;;;;5095343;28;19912;-48
2022/03/26 13:45:45;;;;;;;;;;;17.60;60.00;;;;;;5096281;28;19934;-50
2022/03/26 13:48:12;;;;;;;;;;;17.90;59.90;;;;;;5075087;28;19919;-48
2022/03/26 13:50:38;;;;;;;;;;;17.90;59.90;;;;;;5094935;28;19930;-47
2022/03/26 13:53:06;;;;;;;;;;;17.20;60.60;;;;;;5106868;28;19937;-48
2022/03/26 13:55:33;;;;;;;;;;;17.20;61.20;;;;;;5092863;28;19916;-50
2022/03/26 13:58:03;;;;;;;;;;;17.40;60.80;;;;;;5092069;28;19935;-48
2022/03/26 14:00:29;;;;;;;;;;;17.40;60.50;;;;;;5091493;28;19935;-51
2022/03/26 14:02:55;;;;;;;;;;;17.40;60.20;;;;;;5089447;28;19923;-46
2022/03/26 14:05:28;;;;;;;;;;;17.30;60.50;;;;;;5083588;28;19920;-48
2022/03/26 14:08:03;;;;;;;;;;;17.50;60.40;;;;;;5075520;28;19916;-50
2022/03/26 14:10:49;;;;;;;;;;;17.50;60.00;;;;;;5099062;28;19919;-45
2022/03/26 14:13:15;;;;;;;;;;;17.30;59.90;;;;;;5086190;28;19986;-48
2022/03/26 14:15:44;;;;;;;;;;;17.10;60.00;;;;;;5074140;28;19912;-48
2022/03/26 14:18:10;;;;;;;;;;;17.00;60.10;;;;;;5073040;28;19916;-47
2022/03/26 14:20:35;;;;;;;;;;;17.20;60.00;;;;;;5073314;28;19912;-48
2022/03/26 14:23:03;;;;;;;;;;;17.30;59.40;;;;;;5090918;28;19981;-47
2022/03/26 14:25:30;;;;;;;;;;;17.20;59.40;;;;;;5083826;28;19920;-48
2022/03/26 14:27:56;;;;;;;;;;;17.00;59.80;;;;;;5072693;28;19916;-50